Time;durP1;ratioP1;P1;durP2;ratioP2;P2;SDS_P1;SDS_P2;PMS_P1;PMS_P2;Temp;Humidity;BMP_temperature;BMP_pressure;BME280_temperature;BME280_humidity;BME280_pressure;Samples;Min_cycle;Max_cycle;Signal;HPM_P1;HPM_P2
2023/04/04 00:01:31;;;;;;;4.27;2.37;;;15.40;65.30;;;;;;4191604;28;20068;-63
2023/04/04 00:04:12;;;;;;;2.05;1.92;;;15.40;65.60;;;;;;4190255;28;20056;-63
2023/04/04 00:06:53;;;;;;;3.08;2.78;;;15.50;65.60;;;;;;4190491;28;20052;-62
2023/04/04 00:09:34;;;;;;;4.28;2.50;;;15.50;66.40;;;;;;4194635;28;20182;-62
2023/04/04 00:12:15;;;;;;;3.35;2.60;;;15.60;65.30;;;;;;4217839;28;20043;-62
2023/04/04 00:14:56;;;;;;;2.92;2.30;;;15.60;65.20;;;;;;4209567;28;20141;-62
2023/04/04 00:17:38;;;;;;;3.97;2.70;;;15.60;65.20;;;;;;4194726;28;20056;-62
2023/04/04 00:20:19;;;;;;;4.28;2.92;;;15.60;65.30;;;;;;4194878;28;20339;-62
2023/04/04 00:23:00;;;;;;;3.63;2.60;;;15.70;65.50;;;;;;4220116;27;20088;-62
2023/04/04 00:25:41;;;;;;;4.30;2.85;;;15.70;65.30;;;;;;4228308;27;20188;-62
2023/04/04 00:28:22;;;;;;;3.60;2.85;;;15.80;64.90;;;;;;4228137;27;20050;-61
2023/04/04 00:31:03;;;;;;;2.72;2.50;;;15.90;64.60;;;;;;4228231;27;20513;-61
2023/04/04 00:33:46;;;;;;;3.78;2.78;;;15.90;64.50;;;;;;4217697;28;20059;-62
2023/04/04 00:36:27;;;;;;;3.92;2.50;;;15.90;64.50;;;;;;4227982;28;20156;-62
2023/04/04 00:39:08;;;;;;;;;;;15.90;64.60;;;;;;4228650;27;20374;-62
2023/04/04 00:41:49;;;;;;;3.10;2.80;;;16.00;64.60;;;;;;4223146;28;19930;-62
2023/04/04 00:44:31;;;;;;;4.78;3.20;;;16.00;64.50;;;;;;4210358;28;20058;-62
2023/04/04 00:47:12;;;;;;;3.08;2.50;;;16.00;64.10;;;;;;4211152;28;20070;-62
2023/04/04 00:49:54;;;;;;;5.28;2.42;;;16.00;63.90;;;;;;4201240;28;20092;-62
2023/04/04 00:52:35;;;;;;;5.28;2.80;;;16.00;64.10;;;;;;4210709;28;20051;-62
2023/04/04 00:55:16;;;;;;;4.03;2.63;;;16.00;64.20;;;;;;4209907;28;20100;-62
2023/04/04 00:57:58;;;;;;;3.20;2.45;;;16.00;64.20;;;;;;4211246;28;20059;-62
2023/04/04 01:00:39;;;;;;;4.43;2.35;;;16.00;64.10;;;;;;4209965;28;20055;-62
2023/04/04 01:03:20;;;;;;;;;;;16.00;64.10;;;;;;4210183;28;20506;-62
2023/04/04 01:06:03;;;;;;;3.80;2.72;;;16.00;64.40;;;;;;4209522;28;19927;-62
2023/04/04 01:08:46;;;;;;;2.88;2.47;;;15.90;64.60;;;;;;4194063;28;20051;-62
2023/04/04 01:11:28;;;;;;;3.53;2.90;;;15.90;65.60;;;;;;4215924;28;20109;-62
2023/04/04 01:14:09;;;;;;;4.63;2.67;;;15.90;64.60;;;;;;4192847;28;20051;-62
2023/04/04 01:16:51;;;;;;;3.63;2.85;;;16.00;64.40;;;;;;4192777;28;20056;-62
2023/04/04 01:19:38;;;;;;;4.40;2.90;;;16.10;64.20;;;;;;4205399;28;20055;-63
2023/04/04 01:22:29;;;;;;;3.20;2.72;;;16.10;64.00;;;;;;4216398;28;20060;-63
2023/04/04 01:25:11;;;;;;;4.30;3.03;;;16.10;63.90;;;;;;4192137;28;20043;-62
2023/04/04 01:27:56;;;;;;;5.40;2.80;;;16.20;63.70;;;;;;4195345;28;20067;-63
2023/04/04 01:30:39;;;;;;;2.85;2.65;;;16.10;63.60;;;;;;4224268;28;20051;-63
2023/04/04 01:33:26;;;;;;;2.60;2.40;;;16.10;64.50;;;;;;4225651;28;20050;-63
2023/04/04 01:36:16;;;;;;;4.20;2.60;;;16.10;64.60;;;;;;4227295;28;20055;-63
2023/04/04 01:39:04;;;;;;;3.67;3.17;;;16.00;63.80;;;;;;4199656;28;20529;-63
2023/04/04 01:41:48;;;;;;;2.60;2.40;;;16.10;63.90;;;;;;4193558;28;20059;-63
2023/04/04 01:44:31;;;;;;;2.78;2.40;;;16.10;63.80;;;;;;4192267;28;20116;-63
2023/04/04 01:47:13;;;;;;;2.88;2.67;;;16.10;63.70;;;;;;4218582;27;20070;-62
2023/04/04 01:49:55;;;;;;;2.45;2.25;;;16.10;63.80;;;;;;4225276;28;20047;-63
2023/04/04 01:52:37;;;;;;;3.67;2.78;;;16.10;63.70;;;;;;4225200;27;20050;-63
2023/04/04 01:55:18;;;;;;;4.15;2.72;;;16.00;63.60;;;;;;4225727;28;20176;-62
2023/04/04 01:57:59;;;;;;;3.33;2.58;;;16.00;63.70;;;;;;4207336;28;20189;-62
2023/04/04 02:00:42;;;;;;;5.22;3.17;;;15.90;63.90;;;;;;4208852;28;20109;-62
2023/04/04 02:03:23;;;;;;;3.03;2.70;;;15.90;64.20;;;;;;4208688;28;20117;-63
2023/04/04 02:06:06;;;;;;;3.78;2.45;;;15.90;64.30;;;;;;4208899;28;20047;-63
2023/04/04 02:08:47;;;;;;;4.05;2.67;;;15.90;64.40;;;;;;4219779;28;20497;-62
2023/04/04 02:11:28;;;;;;;2.92;2.60;;;15.90;65.00;;;;;;4225250;28;20058;-62
2023/04/04 02:14:09;;;;;;;7.07;2.83;;;15.90;64.00;;;;;;4217517;27;20047;-63
2023/04/04 02:16:52;;;;;;;2.85;2.55;;;15.90;64.00;;;;;;4208304;28;20054;-62
2023/04/04 02:19:34;;;;;;;4.97;2.80;;;15.90;64.00;;;;;;4208617;28;20082;-63
2023/04/04 02:22:15;;;;;;;3.00;2.50;;;15.80;64.10;;;;;;4209424;28;20096;-63
2023/04/04 02:24:56;;;;;;;3.83;2.75;;;15.80;64.30;;;;;;4208366;28;20186;-62
2023/04/04 02:27:37;;;;;;;3.00;2.58;;;15.80;64.50;;;;;;4208732;28;20050;-62
2023/04/04 02:30:18;;;;;;;3.03;2.40;;;15.70;64.40;;;;;;4224227;28;20447;-62
2023/04/04 02:33:01;;;;;;;3.50;2.53;;;15.70;64.40;;;;;;4196510;28;20395;-62
2023/04/04 02:35:41;;;;;;;2.85;2.47;;;15.70;64.40;;;;;;4208592;28;20059;-62
2023/04/04 02:38:23;;;;;;;4.60;2.45;;;15.60;65.60;;;;;;4207864;28;20070;-62
2023/04/04 02:41:03;;;;;;;2.60;2.30;;;15.70;65.00;;;;;;4208443;28;20506;-62
2023/04/04 02:43:44;;;;;;;3.65;3.10;;;15.80;64.80;;;;;;4209268;28;20190;-63
2023/04/04 02:46:25;;;;;;;2.42;2.22;;;15.90;64.30;;;;;;4218411;28;20189;-62
2023/04/04 02:49:13;;;;;;;2.53;2.20;;;15.90;64.20;;;;;;4199971;28;20067;-62
2023/04/04 02:51:58;;;;;;;2.33;2.20;;;16.00;64.00;;;;;;4207858;28;20051;-62
2023/04/04 02:54:45;;;;;;;4.90;2.38;;;16.00;63.90;;;;;;4207185;28;20047;-62
2023/04/04 02:57:35;;;;;;;4.65;2.72;;;16.10;63.60;;;;;;4195743;28;20577;-62
2023/04/04 03:00:17;;;;;;;4.50;2.47;;;16.20;63.40;;;;;;4207880;28;20156;-63
2023/04/04 03:02:58;;;;;;;3.97;2.20;;;16.20;63.40;;;;;;4207030;28;20059;-63
2023/04/04 03:05:51;;;;;;;;;;;16.20;64.10;;;;;;4206029;28;20090;-63
2023/04/04 03:08:31;;;;;;;;;;;16.20;63.20;;;;;;4208114;28;19927;-63
2023/04/04 03:11:12;;;;;;;3.22;3.00;;;16.20;63.40;;;;;;4207345;28;19996;-63
2023/04/04 03:13:54;;;;;;;3.30;2.58;;;16.30;63.30;;;;;;4207307;28;20177;-62
2023/04/04 03:16:44;;;;;;;6.50;2.70;;;16.30;62.80;;;;;;4217139;28;20066;-63
2023/04/04 03:19:25;;;;;;;3.50;2.60;;;16.30;62.60;;;;;;4224237;28;20112;-63
2023/04/04 03:22:07;;;;;;;2.65;2.38;;;16.40;62.50;;;;;;4214743;28;20100;-62
2023/04/04 03:24:48;;;;;;;2.97;2.15;;;16.30;62.50;;;;;;4202658;28;20047;-63
2023/04/04 03:27:31;;;;;;;2.85;2.60;;;16.30;62.50;;;;;;4216445;28;20078;-62
2023/04/04 03:30:12;;;;;;;4.50;2.60;;;16.20;62.80;;;;;;4225476;27;20555;-63
2023/04/04 03:32:54;;;;;;;;;;;16.30;62.80;;;;;;4224352;28;20114;-62
2023/04/04 03:35:38;;;;;;;2.22;2.03;;;16.30;62.90;;;;;;4194205;28;19936;-63
2023/04/04 03:38:20;;;;;;;2.65;2.42;;;16.30;62.80;;;;;;4206958;28;20391;-63
2023/04/04 03:41:02;;;;;;;3.72;2.45;;;16.30;62.50;;;;;;4208476;28;20097;-62
2023/04/04 03:43:44;;;;;;;2.90;2.58;;;16.30;62.70;;;;;;4207365;28;20051;-62
2023/04/04 03:46:25;;;;;;;5.70;2.70;;;16.30;62.70;;;;;;4208265;28;20161;-62
2023/04/04 03:49:07;;;;;;;3.45;2.75;;;16.40;62.60;;;;;;4207028;28;20039;-63
2023/04/04 03:51:48;;;;;;;3.27;2.80;;;16.40;62.20;;;;;;4190554;28;20129;-63
2023/04/04 03:54:30;;;;;;;4.70;2.40;;;16.40;62.20;;;;;;4214396;28;20521;-62
2023/04/04 03:57:10;;;;;;;2.75;2.35;;;16.40;63.10;;;;;;4225190;28;20133;-62
2023/04/04 03:59:53;;;;;;;3.67;2.38;;;16.30;62.20;;;;;;4211893;28;20611;-63
2023/04/04 04:02:35;;;;;;;2.38;2.17;;;16.30;62.40;;;;;;4223876;28;20405;-63
2023/04/04 04:05:16;;;;;;;5.05;2.60;;;16.30;62.60;;;;;;4223900;28;20047;-62
2023/04/04 04:07:58;;;;;;;2.42;2.15;;;16.40;62.40;;;;;;4210012;28;20202;-63
2023/04/04 04:10:40;;;;;;;2.70;2.40;;;16.40;62.10;;;;;;4208098;28;20047;-63
2023/04/04 04:13:22;;;;;;;2.50;2.30;;;16.30;62.10;;;;;;4211793;28;20071;-63
2023/04/04 04:16:04;;;;;;;4.25;2.75;;;16.30;62.30;;;;;;4223864;28;20050;-62
2023/04/04 04:18:45;;;;;;;2.47;2.38;;;16.30;62.20;;;;;;4224992;28;20070;-63
2023/04/04 04:21:33;;;;;;;2.50;2.13;;;16.20;62.20;;;;;;4223682;28;20055;-63
2023/04/04 04:24:14;;;;;;;3.05;2.75;;;16.20;62.30;;;;;;4215115;28;20059;-63
2023/04/04 04:26:56;;;;;;;3.97;2.38;;;16.20;62.60;;;;;;4189980;28;20067;-63
2023/04/04 04:29:38;;;;;;;4.03;2.47;;;16.10;62.70;;;;;;4178488;28;20846;-63
2023/04/04 04:32:19;;;;;;;3.50;2.40;;;16.10;62.70;;;;;;4190501;28;20051;-62
2023/04/04 04:35:05;;;;;;;3.95;2.53;;;16.00;62.90;;;;;;4190311;28;20165;-63
2023/04/04 04:37:48;;;;;;;3.40;2.78;;;16.00;63.10;;;;;;4224291;28;20055;-63
2023/04/04 04:40:30;;;;;;;2.90;2.60;;;16.10;63.10;;;;;;4206362;28;20104;-62
2023/04/04 04:43:22;;;;;;;3.00;2.47;;;16.10;62.70;;;;;;4207521;28;20406;-62
2023/04/04 04:46:04;;;;;;;3.42;2.70;;;16.20;62.80;;;;;;4206526;28;20044;-62
2023/04/04 04:48:44;;;;;;;3.17;2.38;;;16.20;62.70;;;;;;4212566;28;20069;-62
2023/04/04 04:51:26;;;;;;;2.90;2.22;;;16.20;62.50;;;;;;4223593;28;20058;-62
2023/04/04 04:54:10;;;;;;;2.88;2.47;;;16.10;63.30;;;;;;4211615;28;20051;-63
2023/04/04 04:56:52;;;;;;;6.18;2.78;;;16.10;62.40;;;;;;4220498;28;20108;-63
2023/04/04 04:59:36;;;;;;;2.67;2.47;;;16.00;62.60;;;;;;4189954;28;20075;-62
2023/04/04 05:02:17;;;;;;;4.70;2.25;;;16.00;62.80;;;;;;4192933;28;20051;-63
2023/04/04 05:05:00;;;;;;;2.55;2.45;;;16.00;63.80;;;;;;4192573;28;20063;-63
2023/04/04 05:07:45;;;;;;;2.97;2.67;;;16.00;63.00;;;;;;4213070;27;20124;-62
2023/04/04 05:10:26;;;;;;;5.43;2.35;;;15.90;62.80;;;;;;4214863;27;20482;-62
2023/04/04 05:13:08;;;;;;;2.97;2.47;;;15.90;63.10;;;;;;4226117;28;20061;-62
2023/04/04 05:15:57;;;;;;;6.60;2.95;;;15.90;63.30;;;;;;4192588;28;20055;-62
2023/04/04 05:18:38;;;;;;;3.35;2.35;;;16.00;63.20;;;;;;4194305;28;20050;-62
2023/04/04 05:21:22;;;;;;;2.92;2.65;;;16.00;63.90;;;;;;4192852;28;20052;-62
2023/04/04 05:24:06;;;;;;;3.47;2.35;;;16.10;62.80;;;;;;4192648;28;20052;-62
2023/04/04 05:26:50;;;;;;;3.75;2.75;;;16.20;62.70;;;;;;4216195;28;20479;-62
2023/04/04 05:29:32;;;;;;;2.80;2.60;;;16.30;62.50;;;;;;4198776;28;20125;-62
2023/04/04 05:32:16;;;;;;;4.45;2.15;;;16.30;62.00;;;;;;4209495;28;20537;-62
2023/04/04 05:35:06;;;;;;;5.35;2.67;;;16.30;61.70;;;;;;4209463;28;20047;-62
2023/04/04 05:37:48;;;;;;;4.68;2.78;;;16.40;61.70;;;;;;4209292;28;20051;-62
2023/04/04 05:40:31;;;;;;;2.80;2.45;;;16.40;61.40;;;;;;4208970;28;20059;-62
2023/04/04 05:43:19;;;;;;;4.57;2.60;;;16.50;61.40;;;;;;4193651;27;20398;-62
2023/04/04 05:46:10;;;;;;;4.40;2.80;;;16.50;61.30;;;;;;4213783;27;20055;-62
2023/04/04 05:48:59;;;;;;;3.88;2.55;;;16.50;61.40;;;;;;4226021;28;20062;-60
2023/04/04 05:51:40;;;;;;;2.90;2.70;;;16.50;61.30;;;;;;4214019;27;20092;-59
2023/04/04 05:54:24;;;;;;;2.75;2.53;;;16.50;62.00;;;;;;4225605;28;20628;-62
2023/04/04 05:57:07;;;;;;;4.95;2.47;;;16.50;60.80;;;;;;4193458;28;20125;-61
2023/04/04 05:59:52;;;;;;;3.30;2.70;;;16.60;60.60;;;;;;4191617;28;20514;-59
2023/04/04 06:02:34;;;;;;;2.67;2.45;;;16.50;61.40;;;;;;4192048;28;20067;-61
2023/04/04 06:05:18;;;;;;;5.40;3.28;;;16.50;61.70;;;;;;4191834;28;20542;-59
2023/04/04 06:07:59;;;;;;;2.80;2.38;;;16.50;60.00;;;;;;4192994;28;20086;-60
2023/04/04 06:10:40;;;;;;;4.43;2.60;;;16.60;59.80;;;;;;4193059;28;20059;-60
2023/04/04 06:13:21;;;;;;;3.35;2.58;;;16.60;59.40;;;;;;4202501;28;20075;-60
2023/04/04 06:16:08;;;;;;;3.75;2.72;;;16.60;59.20;;;;;;4199857;28;20055;-60
2023/04/04 06:18:49;;;;;;;3.78;2.78;;;16.50;59.10;;;;;;4192970;28;20509;-61
2023/04/04 06:21:31;;;;;;;4.28;2.40;;;16.50;59.20;;;;;;4207392;28;20517;-61
2023/04/04 06:24:12;;;;;;;4.30;2.60;;;16.40;59.20;;;;;;4221310;27;20497;-61
2023/04/04 06:26:53;;;;;;;4.43;2.80;;;16.50;58.90;;;;;;4226661;27;20535;-61
2023/04/04 06:29:37;;;;;;;3.25;2.60;;;16.50;59.50;;;;;;4202322;28;20047;-61
2023/04/04 06:32:20;;;;;;;4.00;2.40;;;16.40;58.40;;;;;;4191232;28;20408;-60
2023/04/04 06:35:03;;;;;;;4.25;2.30;;;16.40;58.60;;;;;;4197575;28;20062;-60
2023/04/04 06:37:57;;;;;;;2.55;2.10;;;16.50;58.50;;;;;;4223935;28;20561;-60
2023/04/04 06:40:39;;;;;;;2.95;2.67;;;16.50;58.50;;;;;;4224970;28;20096;-60
2023/04/04 06:43:20;;;;;;;4.35;2.00;;;16.40;57.70;;;;;;4207777;28;20509;-60
2023/04/04 06:46:01;;;;;;;3.28;2.22;;;16.40;57.90;;;;;;4196025;28;20055;-60
2023/04/04 06:48:42;;;;;;;3.33;2.27;;;16.30;57.60;;;;;;4202878;28;20051;-61
2023/04/04 06:51:23;;;;;;;4.65;2.25;;;16.30;57.90;;;;;;4209315;28;20092;-61
2023/04/04 06:54:05;;;;;;;3.90;2.72;;;16.30;58.10;;;;;;4209146;28;20054;-61
2023/04/04 06:56:46;;;;;;;3.15;2.40;;;16.30;57.70;;;;;;4208230;28;20093;-60
2023/04/04 06:59:27;;;;;;;4.30;2.72;;;16.40;57.80;;;;;;4202527;28;20173;-61
2023/04/04 07:02:08;;;;;;;4.15;2.50;;;16.40;57.40;;;;;;4191230;28;20130;-60
2023/04/04 07:04:49;;;;;;;4.15;2.70;;;16.40;56.80;;;;;;4193249;28;20264;-61
2023/04/04 07:07:30;;;;;;;6.32;2.80;;;16.30;56.60;;;;;;4203412;28;20067;-61
2023/04/04 07:10:12;;;;;;;4.82;2.88;;;16.30;57.40;;;;;;4207182;28;20132;-61
2023/04/04 07:12:53;;;;;;;2.60;2.40;;;16.20;56.30;;;;;;4206619;28;20135;-61
2023/04/04 07:15:34;;;;;;;3.05;2.50;;;16.20;56.60;;;;;;4208161;28;20102;-61
2023/04/04 07:18:15;;;;;;;6.22;3.30;;;16.20;56.30;;;;;;4205597;28;20121;-61
2023/04/04 07:20:57;;;;;;;6.47;3.40;;;16.10;56.80;;;;;;4206513;28;20134;-61
2023/04/04 07:23:38;;;;;;;6.47;3.67;;;16.10;55.60;;;;;;4204518;28;20062;-61
2023/04/04 07:26:20;;;;;;;7.85;3.83;;;16.20;57.00;;;;;;4210570;28;20054;-61
2023/04/04 07:29:01;;;;;;;4.90;3.55;;;16.20;57.00;;;;;;4206954;28;20387;-61
2023/04/04 07:31:42;;;;;;;6.80;3.30;;;16.30;55.30;;;;;;4205040;28;20070;-61
2023/04/04 07:34:24;;;;;;;5.70;3.15;;;16.30;55.60;;;;;;4208969;28;20054;-61
2023/04/04 07:37:05;;;;;;;4.85;3.03;;;16.30;56.50;;;;;;4208270;28;20067;-62
2023/04/04 07:39:48;;;;;;;5.22;2.65;;;16.30;56.50;;;;;;4203673;28;20069;-61
2023/04/04 07:42:30;;;;;;;2.90;2.55;;;16.30;56.00;;;;;;4207281;28;20132;-61
2023/04/04 07:45:11;;;;;;;3.80;3.08;;;16.20;57.30;;;;;;4204664;28;20382;-62
2023/04/04 07:47:52;;;;;;;3.60;2.65;;;16.20;57.70;;;;;;4206092;28;20133;-62
2023/04/04 07:50:34;;;;;;;6.10;2.50;;;16.20;58.40;;;;;;4207643;28;20055;-62
2023/04/04 07:53:15;;;;;;;4.65;3.13;;;16.10;57.30;;;;;;4204616;28;20509;-59
2023/04/04 07:55:56;;;;;;;5.15;2.58;;;16.10;58.20;;;;;;4206236;28;20136;-58
2023/04/04 07:58:38;;;;;;;7.03;2.80;;;16.10;59.50;;;;;;4201751;28;20413;-60
2023/04/04 08:01:19;;;;;;;1.98;1.77;;;16.00;59.90;;;;;;4205017;28;20055;-60
2023/04/04 08:04:00;;;;;;;4.15;1.95;;;16.00;59.40;;;;;;4210227;28;20059;-60
2023/04/04 08:06:41;;;;;;;4.18;2.35;;;15.90;59.20;;;;;;4206589;28;20059;-60
2023/04/04 08:09:22;;;;;;;5.20;2.55;;;15.90;59.70;;;;;;4205566;28;20186;-60
2023/04/04 08:12:04;;;;;;;3.22;2.38;;;15.90;59.90;;;;;;4206454;28;20055;-60
2023/04/04 08:14:47;;;;;;;4.22;2.70;;;15.80;59.10;;;;;;4205058;28;20051;-60
2023/04/04 08:17:28;;;;;;;3.03;2.50;;;15.70;54.90;;;;;;4205243;28;20071;-61
2023/04/04 08:20:10;;;;;;;4.82;2.55;;;15.70;56.30;;;;;;4203093;28;20059;-59
2023/04/04 08:22:51;;;;;;;4.15;2.50;;;15.60;56.80;;;;;;4206017;28;20055;-60
2023/04/04 08:25:33;;;;;;;4.13;2.13;;;15.60;56.90;;;;;;4207145;28;20105;-60
2023/04/04 08:28:14;;;;;;;5.00;2.88;;;15.50;57.70;;;;;;4203862;28;20390;-60
2023/04/04 08:30:57;;;;;;;3.92;1.98;;;15.40;55.40;;;;;;4206474;28;20051;-60
2023/04/04 08:33:38;;;;;;;2.95;1.70;;;15.40;55.40;;;;;;4203627;28;20051;-58
2023/04/04 08:36:27;;;;;;;2.80;1.80;;;15.30;56.10;;;;;;4208861;28;20200;-58
2023/04/04 08:39:08;;;;;;;4.00;1.83;;;15.30;56.50;;;;;;4207273;28;20397;-58
2023/04/04 08:41:57;;;;;;;2.08;1.67;;;15.20;55.10;;;;;;4208457;28;20058;-60
2023/04/04 08:44:41;;;;;;;2.72;1.88;;;15.10;53.80;;;;;;4206596;28;20058;-59
2023/04/04 08:47:25;;;;;;;4.28;1.65;;;15.10;53.50;;;;;;4208424;28;20528;-60
2023/04/04 08:50:07;;;;;;;4.38;2.13;;;15.10;54.50;;;;;;4210496;28;20047;-60
2023/04/04 08:52:49;;;;;;;3.65;1.70;;;15.10;51.50;;;;;;4208254;28;20189;-59
2023/04/04 08:55:30;;;;;;;5.25;2.10;;;15.00;49.90;;;;;;4209840;28;20059;-59
2023/04/04 08:58:11;;;;;;;3.75;1.70;;;15.00;50.30;;;;;;4221211;28;20043;-59
2023/04/04 09:00:53;;;;;;;5.05;2.10;;;15.00;48.90;;;;;;4209491;28;20054;-59
2023/04/04 09:03:36;;;;;;;4.28;2.03;;;15.00;48.40;;;;;;4210170;28;20047;-60
2023/04/04 09:06:18;;;;;;;2.08;1.60;;;15.00;50.00;;;;;;4207526;28;20047;-59
2023/04/04 09:08:59;;;;;;;3.10;2.28;;;15.00;50.20;;;;;;4209067;28;20063;-60
2023/04/04 09:11:40;;;;;;;3.78;1.90;;;15.00;51.00;;;;;;4209379;27;20051;-60
2023/04/04 09:14:21;;;;;;;1.92;1.50;;;15.00;49.60;;;;;;4207078;28;20051;-60
2023/04/04 09:17:02;;;;;;;5.25;1.83;;;15.00;46.30;;;;;;4209600;28;20050;-60
2023/04/04 09:19:44;;;;;;;1.80;1.70;;;15.10;45.40;;;;;;4206586;28;20455;-60
2023/04/04 09:22:26;;;;;;;4.43;2.17;;;15.10;48.50;;;;;;4207408;28;20058;-60
2023/04/04 09:25:08;;;;;;;2.10;1.88;;;15.10;48.80;;;;;;4210051;28;20185;-60
2023/04/04 09:27:50;;;;;;;3.05;1.73;;;15.10;48.90;;;;;;4207755;28;20118;-60
2023/04/04 09:30:31;;;;;;;2.08;1.80;;;15.10;49.00;;;;;;4197284;28;20482;-60
2023/04/04 09:33:14;;;;;;;4.20;1.83;;;15.20;47.20;;;;;;4209911;28;20161;-60
2023/04/04 09:35:59;;;;;;;3.53;1.50;;;15.20;48.20;;;;;;4208031;28;20391;-60
2023/04/04 09:38:41;;;;;;;2.67;1.83;;;15.20;47.30;;;;;;4209472;28;20047;-61
2023/04/04 09:41:23;;;;;;;2.83;2.10;;;15.20;46.00;;;;;;4194833;28;20048;-60
2023/04/04 09:44:04;;;;;;;2.67;1.67;;;15.30;48.20;;;;;;4210445;28;20093;-60
2023/04/04 09:46:45;;;;;;;3.55;2.05;;;15.30;48.40;;;;;;4203998;28;20051;-60
2023/04/04 09:49:26;;;;;;;2.83;1.73;;;15.30;48.50;;;;;;4193611;28;20059;-60
2023/04/04 09:52:18;;;;;;;3.53;1.67;;;15.30;47.70;;;;;;4223685;28;20543;-60
2023/04/04 09:54:59;;;;;;;3.70;1.95;;;15.30;47.80;;;;;;4211073;28;20042;-59
2023/04/04 09:57:41;;;;;;;4.93;1.92;;;15.30;48.60;;;;;;4209855;28;20486;-58
2023/04/04 10:00:23;;;;;;;2.95;1.67;;;15.30;48.80;;;;;;4209678;28;20128;-60
2023/04/04 10:03:05;;;;;;;2.03;1.60;;;15.30;50.20;;;;;;4209711;28;20116;-60
2023/04/04 10:05:48;;;;;;;4.57;1.70;;;15.30;48.40;;;;;;4209768;28;20071;-60
2023/04/04 10:08:32;;;;;;;2.95;1.80;;;15.30;51.00;;;;;;4209846;28;20062;-60
2023/04/04 10:11:13;;;;;;;5.05;1.73;;;15.30;53.40;;;;;;4209659;28;20399;-59
2023/04/04 10:13:54;;;;;;;2.15;1.40;;;15.30;49.80;;;;;;4208376;28;20059;-59
2023/04/04 10:16:36;;;;;;;2.30;1.30;;;15.30;48.90;;;;;;4208441;28;20079;-59
2023/04/04 10:19:18;;;;;;;3.30;1.92;;;15.30;48.70;;;;;;4209980;28;20780;-58
2023/04/04 10:22:00;;;;;;;3.28;1.67;;;15.30;47.60;;;;;;4209715;28;20047;-58
2023/04/04 10:24:42;;;;;;;1.55;1.40;;;15.30;47.50;;;;;;4208509;28;20177;-59
2023/04/04 10:27:23;;;;;;;2.55;1.70;;;15.30;47.80;;;;;;4209826;28;20058;-58
2023/04/04 10:30:05;;;;;;;2.47;1.70;;;15.30;49.00;;;;;;4209889;28;20079;-58
2023/04/04 10:32:56;;;;;;;3.58;1.65;;;15.30;48.50;;;;;;4209580;28;20076;-58
2023/04/04 10:35:38;;;;;;;2.28;1.70;;;15.20;48.50;;;;;;4209549;28;20133;-60
2023/04/04 10:38:23;;;;;;;3.38;1.73;;;15.20;47.50;;;;;;4209917;28;20531;-58
2023/04/04 10:41:07;;;;;;;5.00;2.35;;;15.20;48.50;;;;;;4209530;28;20501;-58
2023/04/04 10:43:48;;;;;;;2.92;2.13;;;15.20;48.30;;;;;;4209007;28;20414;-59
2023/04/04 10:46:31;;;;;;;2.22;1.77;;;15.20;48.40;;;;;;4209119;28;20129;-59
2023/04/04 10:49:13;;;;;;;7.32;2.60;;;15.20;48.40;;;;;;4209190;28;20518;-59
2023/04/04 10:51:56;;;;;;;2.58;2.13;;;15.10;48.80;;;;;;4208764;28;20039;-59
2023/04/04 10:54:37;;;;;;;5.22;1.90;;;15.20;48.80;;;;;;4208849;28;20378;-59
2023/04/04 10:57:19;;;;;;;2.78;2.00;;;15.10;46.80;;;;;;4208913;28;20055;-59
2023/04/04 11:00:03;;;;;;;2.42;1.92;;;15.10;49.10;;;;;;4207602;28;20058;-59
2023/04/04 11:02:50;;;;;;;3.47;1.90;;;15.10;47.80;;;;;;4208874;28;20094;-59
2023/04/04 11:05:36;;;;;;;3.25;1.55;;;15.10;47.70;;;;;;4209078;28;20058;-59
2023/04/04 11:08:19;;;;;;;3.05;2.00;;;15.10;46.80;;;;;;4208928;28;20047;-59
2023/04/04 11:11:00;;;;;;;2.78;1.88;;;15.00;47.20;;;;;;4207649;28;20059;-59
2023/04/04 11:14:00;;;;;;;2.35;2.15;;;15.00;50.00;;;;;;4208797;28;20120;-59
2023/04/04 11:16:46;;;;;;;3.88;2.00;;;15.00;48.60;;;;;;4208754;28;20834;-59
2023/04/04 11:19:30;;;;;;;3.38;1.77;;;15.00;47.70;;;;;;4207465;28;20075;-59
2023/04/04 11:22:11;;;;;;;1.83;1.42;;;15.00;47.30;;;;;;4208679;28;20043;-59
2023/04/04 11:25:00;;;;;;;4.18;1.70;;;15.00;45.90;;;;;;4208693;28;20043;-59
2023/04/04 11:27:41;;;;;;;3.15;1.90;;;15.00;47.80;;;;;;4208176;28;20054;-59
2023/04/04 11:30:23;;;;;;;4.72;1.90;;;15.00;52.40;;;;;;4208643;28;20100;-59
2023/04/04 11:33:05;;;;;;;4.28;1.88;;;15.10;54.10;;;;;;4208335;28;20405;-59
2023/04/04 11:35:50;;;;;;;2.25;1.83;;;15.20;55.40;;;;;;4208687;28;20050;-59
2023/04/04 11:38:31;;;;;;;4.22;1.77;;;15.30;51.50;;;;;;4208764;28;20105;-59
2023/04/04 11:41:13;;;;;;;2.97;1.80;;;15.40;49.80;;;;;;4208520;28;20399;-59
2023/04/04 11:43:54;;;;;;;2.58;1.80;;;15.50;51.50;;;;;;4208513;28;20054;-60
2023/04/04 11:46:38;;;;;;;2.85;1.77;;;15.60;51.60;;;;;;4208311;28;20391;-60
2023/04/04 11:49:19;;;;;;;4.00;1.80;;;15.60;53.90;;;;;;4208594;28;20056;-60
2023/04/04 11:52:04;;;;;;;1.58;1.48;;;15.60;50.20;;;;;;4208434;28;20101;-59
2023/04/04 11:54:47;;;;;;;2.67;1.73;;;15.60;53.20;;;;;;4208488;28;20059;-60
2023/04/04 11:57:28;;;;;;;3.90;2.03;;;15.60;49.80;;;;;;4208551;28;20477;-59
2023/04/04 12:00:14;;;;;;;3.60;2.17;;;15.60;48.80;;;;;;4208434;28;20050;-59
2023/04/04 12:02:57;;;;;;;3.05;2.22;;;15.60;51.50;;;;;;4208271;28;20157;-59
2023/04/04 12:05:39;;;;;;;3.53;2.08;;;15.60;48.80;;;;;;4208461;28;20555;-60
2023/04/04 12:08:22;;;;;;;2.65;2.17;;;15.60;50.30;;;;;;4208112;28;20047;-59
2023/04/04 12:11:07;;;;;;;2.72;1.80;;;15.60;52.20;;;;;;4211290;28;20051;-59
2023/04/04 12:13:51;;;;;;;2.10;1.90;;;15.60;49.90;;;;;;4211647;28;20205;-59
2023/04/04 12:16:32;;;;;;;3.10;2.05;;;15.50;49.60;;;;;;4211713;28;20505;-59
2023/04/04 12:19:14;;;;;;;3.90;2.58;;;15.50;48.60;;;;;;4211475;28;20093;-60
2023/04/04 12:21:56;;;;;;;4.03;2.33;;;15.50;48.70;;;;;;4211493;28;20564;-59
2023/04/04 12:24:37;;;;;;;3.35;2.60;;;15.50;48.40;;;;;;4211585;28;20196;-59
2023/04/04 12:27:18;;;;;;;2.53;2.20;;;15.40;50.00;;;;;;4211598;28;20059;-60
2023/04/04 12:30:00;;;;;;;2.87;2.07;;;15.40;50.10;;;;;;4211331;28;20051;-59
2023/04/04 12:32:41;;;;;;;3.67;2.58;;;15.40;48.20;;;;;;4211540;28;20050;-59
2023/04/04 12:35:23;;;;;;;3.08;2.40;;;15.40;47.20;;;;;;4210129;28;20505;-60
2023/04/04 12:38:06;;;;;;;2.92;2.15;;;15.30;47.90;;;;;;4211576;28;20055;-60
2023/04/04 12:40:47;;;;;;;3.33;2.10;;;15.30;47.30;;;;;;4211689;28;20051;-60
2023/04/04 12:43:29;;;;;;;2.28;2.17;;;15.30;47.80;;;;;;4210364;28;20050;-59
2023/04/04 12:46:10;;;;;;;4.78;2.33;;;15.30;48.10;;;;;;4211776;28;20093;-60
2023/04/04 12:48:52;;;;;;;4.40;2.72;;;15.30;46.20;;;;;;4211160;28;20402;-59
2023/04/04 12:51:36;;;;;;;4.07;2.50;;;15.20;48.20;;;;;;4210994;28;20610;-60
2023/04/04 12:54:27;;;;;;;4.97;2.50;;;15.20;48.30;;;;;;4210728;28;20067;-59
2023/04/04 12:57:11;;;;;;;4.15;2.85;;;15.20;46.80;;;;;;4210710;28;20075;-61
2023/04/04 12:59:54;;;;;;;4.60;2.58;;;15.20;47.40;;;;;;4211148;28;20458;-59
2023/04/04 13:02:36;;;;;;;4.22;2.75;;;15.20;46.30;;;;;;4211003;28;20074;-59
2023/04/04 13:05:20;;;;;;;2.78;2.45;;;15.20;47.20;;;;;;4210827;28;20055;-59
2023/04/04 13:08:07;;;;;;;4.78;2.78;;;15.20;47.90;;;;;;4209849;28;20514;-60
2023/04/04 13:11:02;;;;;;;2.85;2.50;;;15.10;47.60;;;;;;4209349;28;20050;-60
2023/04/04 13:13:44;;;;;;;5.45;2.70;;;15.10;47.30;;;;;;4226040;27;20104;-62
2023/04/04 13:16:32;;;;;;;4.80;2.80;;;15.10;49.10;;;;;;4226829;27;20390;-61
2023/04/04 13:19:13;;;;;;;5.90;2.95;;;15.20;48.70;;;;;;4227313;27;20119;-62
2023/04/04 13:21:54;;;;;;;4.20;3.08;;;15.20;48.00;;;;;;4218916;28;20067;-61
2023/04/04 13:24:36;;;;;;;3.90;2.63;;;15.30;48.90;;;;;;4205853;28;20508;-59
2023/04/04 13:27:19;;;;;;;3.95;2.60;;;15.30;47.60;;;;;;4209640;27;20038;-58
2023/04/04 13:30:00;;;;;;;2.95;2.60;;;15.30;49.90;;;;;;4209671;28;20140;-60
2023/04/04 13:32:41;;;;;;;4.55;2.92;;;15.30;48.70;;;;;;4208660;28;20109;-59
2023/04/04 13:35:22;;;;;;;5.00;2.95;;;15.30;48.70;;;;;;4209857;28;20055;-60
2023/04/04 13:38:03;;;;;;;3.05;2.53;;;15.30;47.80;;;;;;4209529;28;20063;-60
2023/04/04 13:40:46;;;;;;;6.70;2.83;;;15.30;48.10;;;;;;4209581;28;20070;-59
2023/04/04 13:43:27;;;;;;;2.92;2.70;;;15.30;49.40;;;;;;4192955;28;20079;-60
2023/04/04 13:46:08;;;;;;;4.57;3.35;;;15.30;49.90;;;;;;4192094;28;20055;-61
2023/04/04 13:48:48;;;;;;;4.45;2.70;;;15.30;49.50;;;;;;4192849;28;20383;-61
2023/04/04 13:51:30;;;;;;;3.63;2.67;;;15.30;49.50;;;;;;4197060;28;20442;-60
2023/04/04 13:54:11;;;;;;;4.15;2.67;;;15.20;50.60;;;;;;4196621;28;20430;-61
2023/04/04 13:56:53;;;;;;;2.78;2.50;;;15.20;51.20;;;;;;4209548;28;20117;-63
2023/04/04 13:59:35;;;;;;;3.15;2.53;;;15.30;51.20;;;;;;4209186;28;20051;-59
2023/04/04 14:02:16;;;;;;;4.10;2.97;;;15.30;51.10;;;;;;4217488;27;20059;-60
2023/04/04 14:04:57;;;;;;;2.75;2.55;;;15.30;49.60;;;;;;4226021;27;20059;-60
2023/04/04 14:07:38;;;;;;;7.63;3.20;;;15.30;49.30;;;;;;4226004;28;20507;-59